Delmont, South Dakota
Current Conditions -  °F | °C
As of 4:53 AM on Sunday 23 Nov 2014 (Local Time) from KMHE Reporting Station
Clear Clear  
Wind Chill: 28°   Ceiling: Unl
Heat Index: 36°   Visibility: 10mi
Dew Point: 32°   Wind: 12mph
Humidity: 86%   Direction: 320°NW
Pressure: 29.47"   Gusts: NA
Location:  43.27°N, 98.16°W
Report Text: KMHE 231053Z AUTO 32010KT 10SM CLR 02/00 A2947 RMK AO2 SLP986 T00220000 $
Loading
Personal Weather Stations






























Interactive Weather Map New forecast layout! Learn more

10-Day Weather Forecast

Advertisements
Track Severe Weather on mobile